createdAt,value
2023-05-17T00:01:16.540Z,18.10
2023-05-17T00:06:13.428Z,17.84
2023-05-17T00:11:10.943Z,17.94
2023-05-17T00:16:08.464Z,17.84
2023-05-17T00:21:05.441Z,17.93
2023-05-17T00:26:02.450Z,17.88
2023-05-17T00:31:00.057Z,17.57
2023-05-17T00:35:57.183Z,17.90
2023-05-17T00:40:54.182Z,17.32
2023-05-17T00:45:51.286Z,17.36
2023-05-17T00:50:49.204Z,17.09
2023-05-17T00:55:46.728Z,16.87
2023-05-17T01:00:44.516Z,16.76
2023-05-17T01:05:42.105Z,16.81
2023-05-17T01:10:50.027Z,16.58
2023-05-17T01:15:56.070Z,16.64
2023-05-17T01:20:56.214Z,16.33
2023-05-17T01:26:07.750Z,16.53
2023-05-17T01:31:05.648Z,16.42
2023-05-17T01:36:02.479Z,16.62
2023-05-17T01:41:13.782Z,16.42
2023-05-17T01:46:18.776Z,16.42
2023-05-17T01:51:20.053Z,16.01
2023-05-17T01:56:21.755Z,15.60
2023-05-17T02:01:21.183Z,15.79
2023-05-17T02:06:18.105Z,15.37
2023-05-17T02:11:14.944Z,15.16
2023-05-17T02:16:11.871Z,15.15
2023-05-17T02:21:09.594Z,15.09
2023-05-17T02:26:06.748Z,14.98
2023-05-17T02:31:07.932Z,14.83
2023-05-17T02:36:05.362Z,14.87
2023-05-17T02:41:03.192Z,14.63
2023-05-17T02:46:01.626Z,14.71
2023-05-17T02:50:58.508Z,14.44
2023-05-17T02:55:57.530Z,14.84
2023-05-17T03:00:55.159Z,14.70
2023-05-17T03:05:54.125Z,14.62
2023-05-17T03:10:52.434Z,14.45
2023-05-17T03:15:49.567Z,14.44
2023-05-17T03:20:48.379Z,14.29
2023-05-17T03:25:46.079Z,14.48
2023-05-17T03:30:43.446Z,14.47
2023-05-17T03:35:40.711Z,14.33
2023-05-17T03:40:38.415Z,14.25
2023-05-17T03:45:35.840Z,14.51
2023-05-17T03:50:32.841Z,14.86
2023-05-17T03:55:30.107Z,15.15
2023-05-17T04:00:27.998Z,15.08
2023-05-17T04:05:30.517Z,15.40
2023-05-17T04:10:27.614Z,15.81
2023-05-17T04:15:24.565Z,15.89
2023-05-17T04:20:22.420Z,16.18
2023-05-17T04:25:20.177Z,16.08
2023-05-17T04:30:17.480Z,16.53
2023-05-17T04:35:15.354Z,16.29
2023-05-17T04:40:17.215Z,15.92
2023-05-17T04:45:15.707Z,15.50
2023-05-17T04:50:13.142Z,15.53
2023-05-17T04:55:15.121Z,15.17
2023-05-17T05:00:15.827Z,15.37
2023-05-17T05:05:25.323Z,14.82
2023-05-17T05:10:25.009Z,15.33
2023-05-17T05:15:24.449Z,15.45
2023-05-17T05:20:27.848Z,15.18
2023-05-17T05:25:35.041Z,14.73
2023-05-17T05:30:34.666Z,15.14
2023-05-17T05:35:32.078Z,15.33
2023-05-17T05:40:43.425Z,15.44
2023-05-17T05:45:45.293Z,15.81
2023-05-17T05:50:42.773Z,15.95
2023-05-17T05:55:41.729Z,15.68
2023-05-17T06:00:39.923Z,15.72
2023-05-17T06:05:39.976Z,16.24
2023-05-17T06:10:39.910Z,16.64
2023-05-17T06:15:50.719Z,16.20
2023-05-17T06:20:48.436Z,16.42
2023-05-17T06:25:45.250Z,16.30
2023-05-17T06:30:42.452Z,16.89
2023-05-17T06:35:55.544Z,16.74
2023-05-17T06:40:58.078Z,17.03
2023-05-17T06:45:55.267Z,16.56
2023-05-17T06:50:52.189Z,17.17
2023-05-17T06:55:52.554Z,17.10
2023-05-17T07:00:50.536Z,17.09
2023-05-17T07:05:47.480Z,16.76
2023-05-17T07:10:44.659Z,16.84
2023-05-17T07:15:42.386Z,16.60
2023-05-17T07:20:39.911Z,16.72
2023-05-17T07:25:39.858Z,16.23
2023-05-17T07:30:36.798Z,16.41
2023-05-17T07:35:45.781Z,16.35
2023-05-17T07:40:42.735Z,16.59
2023-05-17T07:45:39.783Z,16.31
2023-05-17T07:50:36.724Z,16.66
2023-05-17T07:55:41.021Z,16.61
2023-05-17T08:00:38.284Z,16.76
2023-05-17T08:05:35.192Z,16.37
2023-05-17T08:10:37.421Z,16.55
2023-05-17T08:15:34.327Z,16.57
2023-05-17T08:20:31.180Z,16.76
2023-05-17T08:25:28.894Z,16.75
2023-05-17T08:30:32.760Z,16.83
2023-05-17T08:35:35.680Z,16.83
2023-05-17T08:40:33.279Z,16.67
2023-05-17T08:45:40.932Z,16.92
2023-05-17T08:50:38.834Z,17.12
2023-05-17T08:55:37.453Z,16.97
2023-05-17T09:02:07.569Z,17.12
2023-05-17T09:07:58.626Z,17.06
2023-05-17T09:13:28.737Z,16.60
2023-05-17T09:18:32.452Z,16.75
2023-05-17T09:23:31.844Z,16.89
2023-05-17T09:28:36.391Z,16.84
2023-05-17T09:33:33.391Z,16.81
2023-05-17T09:38:31.734Z,16.83
2023-05-17T09:43:30.406Z,16.84
2023-05-17T09:48:28.138Z,16.81
2023-05-17T09:53:26.340Z,16.66
2023-05-17T09:58:25.285Z,16.68
2023-05-17T10:03:23.527Z,16.69
2023-05-17T10:08:25.348Z,16.59
2023-05-17T10:13:37.626Z,16.86
2023-05-17T10:18:35.522Z,16.83
2023-05-17T10:23:33.480Z,16.95
2023-05-17T10:28:33.121Z,17.02
2023-05-17T10:33:32.564Z,17.08
2023-05-17T10:38:41.947Z,17.01
2023-05-17T10:43:42.061Z,16.99
2023-05-17T10:48:40.170Z,16.93
2023-05-17T10:54:04.356Z,17.24
2023-05-17T10:59:22.624Z,17.06
2023-05-17T11:04:26.448Z,16.98
2023-05-17T11:09:27.186Z,17.08
2023-05-17T11:14:25.992Z,17.05
2023-05-17T11:19:22.894Z,16.95
2023-05-17T11:24:26.628Z,16.99
2023-05-17T11:29:30.482Z,16.81
2023-05-17T11:34:27.783Z,16.91
2023-05-17T11:39:26.315Z,16.85
2023-05-17T11:44:25.238Z,17.13
2023-05-17T11:49:35.148Z,17.36
2023-05-17T11:54:34.583Z,17.30
2023-05-17T11:59:38.123Z,17.47
2023-05-17T12:04:42.068Z,17.69
2023-05-17T12:09:40.122Z,17.97
2023-05-17T12:14:37.430Z,18.54
2023-05-17T12:19:35.508Z,18.78
2023-05-17T12:24:37.991Z,18.60
2023-05-17T12:29:35.270Z,18.80
2023-05-17T12:34:33.356Z,18.80
2023-05-17T12:39:31.776Z,18.64
2023-05-17T12:44:29.709Z,18.88
2023-05-17T12:49:27.233Z,18.99
2023-05-17T12:54:28.411Z,19.13
2023-05-17T12:59:25.785Z,19.13
2023-05-17T13:04:31.259Z,19.00
2023-05-17T13:09:31.541Z,18.92
2023-05-17T13:14:37.393Z,19.22
2023-05-17T13:19:45.082Z,18.72
2023-05-17T13:24:44.126Z,19.19
2023-05-17T13:29:42.956Z,19.16
2023-05-17T13:34:48.904Z,18.65
2023-05-17T13:39:45.765Z,18.89
2023-05-17T13:44:43.055Z,18.77
2023-05-17T13:49:40.799Z,18.77
2023-05-17T13:54:38.944Z,18.43
2023-05-17T13:59:35.936Z,19.02
2023-05-17T14:04:32.940Z,18.96
2023-05-17T14:09:32.346Z,19.38
2023-05-17T14:14:30.988Z,19.58
2023-05-17T14:19:33.923Z,19.44
2023-05-17T14:24:36.136Z,19.59
2023-05-17T14:29:35.819Z,19.75
2023-05-17T14:34:33.369Z,19.95
2023-05-17T14:39:31.292Z,19.85
2023-05-17T14:44:29.371Z,19.84
2023-05-17T14:49:27.975Z,19.80
2023-05-17T14:54:25.648Z,19.65
2023-05-17T14:59:23.890Z,19.83
2023-05-17T15:04:24.237Z,19.71
2023-05-17T15:09:25.306Z,19.44
2023-05-17T15:14:24.047Z,19.55
2023-05-17T15:19:22.688Z,19.58
2023-05-17T15:24:26.481Z,19.63
2023-05-17T15:29:24.572Z,19.68
2023-05-17T15:34:26.272Z,19.60
2023-05-17T15:39:24.223Z,20.18
2023-05-17T15:44:25.858Z,20.31
2023-05-17T15:49:22.921Z,20.33
2023-05-17T15:54:21.093Z,20.48
2023-05-17T15:59:18.039Z,20.72
2023-05-17T16:04:16.923Z,20.79
2023-05-17T16:09:14.234Z,20.78
2023-05-17T16:14:11.108Z,20.79
2023-05-17T16:19:09.093Z,20.93
2023-05-17T16:24:08.175Z,20.61
2023-05-17T16:29:05.136Z,20.86
2023-05-17T16:34:03.118Z,20.80
2023-05-17T16:39:00.419Z,20.51
2023-05-17T16:43:59.978Z,19.89
2023-05-17T16:48:57.106Z,20.35
2023-05-17T16:53:54.178Z,19.81
2023-05-17T16:58:52.070Z,19.58
2023-05-17T17:03:50.716Z,19.53
2023-05-17T17:08:48.873Z,19.63
2023-05-17T17:13:46.794Z,19.24
2023-05-17T17:18:55.437Z,19.10
2023-05-17T17:23:52.334Z,19.21
2023-05-17T17:28:49.247Z,18.96
2023-05-17T17:33:46.254Z,18.81
2023-05-17T17:38:46.110Z,18.85
2023-05-17T17:43:46.249Z,18.59
2023-05-17T17:48:43.934Z,18.68
2023-05-17T17:53:41.405Z,18.74
2023-05-17T17:58:39.552Z,18.54
2023-05-17T18:03:36.556Z,18.39
2023-05-17T18:08:34.015Z,18.18
2023-05-17T18:13:33.565Z,18.43
2023-05-17T18:18:32.800Z,18.58
2023-05-17T18:23:35.567Z,18.50
2023-05-17T18:28:41.894Z,18.38
2023-05-17T18:33:40.888Z,18.57
2023-05-17T18:38:37.868Z,18.60
2023-05-17T18:43:34.873Z,18.42
2023-05-17T18:48:35.360Z,18.42
2023-05-17T18:53:33.259Z,18.51
2023-05-17T18:58:30.359Z,18.34
2023-05-17T19:03:27.204Z,17.98
2023-05-17T19:08:24.293Z,18.12
2023-05-17T19:13:21.870Z,18.04
2023-05-17T19:18:21.858Z,17.72
2023-05-17T19:23:20.767Z,17.80
2023-05-17T19:28:18.102Z,18.00
2023-05-17T19:33:16.103Z,17.80
2023-05-17T19:38:12.908Z,17.42
2023-05-17T19:43:09.743Z,17.14
2023-05-17T19:48:07.472Z,16.69
2023-05-17T19:53:05.194Z,16.33
2023-05-17T19:58:02.402Z,16.08
2023-05-17T20:03:00.194Z,16.00
2023-05-17T20:07:57.276Z,15.65
2023-05-17T20:12:55.441Z,15.71
2023-05-17T20:17:52.699Z,15.80
2023-05-17T20:22:49.864Z,15.29
2023-05-17T20:27:53.387Z,15.56
2023-05-17T20:32:51.099Z,15.52
2023-05-17T20:37:47.980Z,15.57
2023-05-17T20:42:45.373Z,15.20
2023-05-17T20:47:42.926Z,15.55
2023-05-17T20:52:40.618Z,15.50
2023-05-17T20:57:37.721Z,15.38
2023-05-17T21:02:34.758Z,15.70
2023-05-17T21:07:31.641Z,15.84
2023-05-17T21:12:29.401Z,15.86
2023-05-17T21:17:26.785Z,16.14
2023-05-17T21:22:23.898Z,16.12
2023-05-17T21:27:20.798Z,15.89
2023-05-17T21:32:18.313Z,16.13
2023-05-17T21:37:15.157Z,16.05
2023-05-17T21:42:11.964Z,15.92
2023-05-17T21:47:09.677Z,16.01
2023-05-17T21:52:07.423Z,16.08
2023-05-17T21:57:04.416Z,15.89
2023-05-17T22:02:01.315Z,16.04
2023-05-17T22:06:58.129Z,15.98
2023-05-17T22:11:58.101Z,15.91
2023-05-17T22:16:56.078Z,16.11
2023-05-17T22:21:52.859Z,16.19
2023-05-17T22:26:49.624Z,16.22
2023-05-17T22:31:49.592Z,15.88
2023-05-17T22:36:46.811Z,15.90
2023-05-17T22:41:43.735Z,16.00
2023-05-17T22:46:41.398Z,16.10
2023-05-17T22:51:39.729Z,16.44
2023-05-17T22:56:36.675Z,16.52
2023-05-17T23:01:33.496Z,16.27
2023-05-17T23:06:33.566Z,16.53
2023-05-17T23:11:31.370Z,15.87
2023-05-17T23:16:28.856Z,15.66
2023-05-17T23:21:25.868Z,15.47
2023-05-17T23:26:22.658Z,15.19
2023-05-17T23:31:21.164Z,15.49
2023-05-17T23:36:20.105Z,15.54
2023-05-17T23:41:19.097Z,15.50
2023-05-17T23:46:19.099Z,15.34
2023-05-17T23:51:18.545Z,15.03
2023-05-17T23:56:16.460Z,15.34
